createdAt,value
2017-08-23T00:00:05.327Z,23.1
2017-08-23T00:02:05.065Z,23.1
2017-08-23T00:04:07.354Z,23.1
2017-08-23T00:06:05.102Z,23.1
2017-08-23T00:08:05.050Z,23.1
2017-08-23T00:10:07.308Z,23.1
2017-08-23T00:12:05.107Z,23.1
2017-08-23T00:14:05.027Z,23.1
2017-08-23T00:16:04.808Z,23.1
2017-08-23T00:18:04.800Z,23.1
2017-08-23T00:20:05.642Z,23.1
2017-08-23T00:22:05.515Z,23.2
2017-08-23T00:24:05.329Z,23.1
2017-08-23T00:26:05.483Z,23.2
2017-08-23T00:28:05.202Z,23.1
2017-08-23T00:30:10.109Z,23.1
2017-08-23T00:32:04.918Z,23.1
2017-08-23T00:34:05.205Z,23.1
2017-08-23T00:36:07.503Z,23.1
2017-08-23T00:38:10.627Z,23.1
2017-08-23T00:40:05.603Z,23.1
2017-08-23T00:42:05.385Z,23.1
2017-08-23T00:44:05.253Z,23.1
2017-08-23T00:46:10.106Z,23.1
2017-08-23T00:48:04.886Z,23.1
2017-08-23T00:50:04.636Z,23.1
2017-08-23T00:52:07.909Z,23.1
2017-08-23T00:54:07.198Z,23.1
2017-08-23T00:56:05.083Z,23.1
2017-08-23T00:58:04.844Z,23.1
2017-08-23T01:00:07.193Z,23.1
2017-08-23T01:02:05.459Z,23.1
2017-08-23T01:04:05.156Z,23.1
2017-08-23T01:06:04.883Z,23.1
2017-08-23T01:08:04.812Z,23.1
2017-08-23T01:10:05.558Z,23.1
2017-08-23T01:12:05.459Z,23.1
2017-08-23T01:14:07.817Z,23.1
2017-08-23T01:16:05.149Z,23.1
2017-08-23T01:18:05.073Z,23.1
2017-08-23T01:20:04.915Z,23.1
2017-08-23T01:22:04.666Z,23.1
2017-08-23T01:24:05.004Z,23.1
2017-08-23T01:26:10.169Z,23.1
2017-08-23T01:28:05.192Z,23.1
2017-08-23T01:30:05.463Z,23.1
2017-08-23T01:32:05.027Z,23.1
2017-08-23T01:34:04.724Z,23.1
2017-08-23T01:36:05.428Z,23.1
2017-08-23T01:38:05.182Z,23
2017-08-23T01:40:05.467Z,23.1
2017-08-23T01:42:07.720Z,23.1
2017-08-23T01:44:05.615Z,23
2017-08-23T01:46:07.833Z,23
2017-08-23T01:48:05.541Z,23.1
2017-08-23T01:50:05.414Z,23.1
2017-08-23T01:52:05.236Z,23
2017-08-23T01:54:07.500Z,23
2017-08-23T01:56:05.413Z,23
2017-08-23T01:58:04.642Z,23
2017-08-23T02:00:05.537Z,23
2017-08-23T02:02:05.252Z,23
2017-08-23T02:04:08.048Z,23.1
2017-08-23T02:06:05.391Z,23
2017-08-23T02:08:07.804Z,23
2017-08-23T02:10:05.545Z,23
2017-08-23T02:12:05.302Z,23
2017-08-23T02:14:07.567Z,23
2017-08-23T02:16:07.380Z,23
2017-08-23T02:18:07.786Z,23
2017-08-23T02:20:05.105Z,23
2017-08-23T02:22:07.899Z,23
2017-08-23T02:24:05.582Z,23
2017-08-23T02:26:05.310Z,23
2017-08-23T02:28:05.046Z,23
2017-08-23T02:30:04.823Z,23
2017-08-23T02:32:05.848Z,23
2017-08-23T02:34:05.655Z,23
2017-08-23T02:36:10.522Z,23
2017-08-23T02:38:10.358Z,23
2017-08-23T02:40:05.129Z,23
2017-08-23T02:42:04.956Z,23
2017-08-23T02:44:04.822Z,23
2017-08-23T02:46:05.577Z,23
2017-08-23T02:48:04.967Z,23
2017-08-23T02:50:09.878Z,23
2017-08-23T02:52:08.139Z,23
2017-08-23T02:54:04.832Z,23
2017-08-23T02:56:05.546Z,23
2017-08-23T02:58:10.393Z,23
2017-08-23T03:00:05.178Z,23
2017-08-23T03:02:07.553Z,23
2017-08-23T03:04:10.472Z,23
2017-08-23T03:06:07.700Z,23
2017-08-23T03:08:07.893Z,23
2017-08-23T03:10:05.596Z,23
2017-08-23T03:12:04.802Z,22.9
2017-08-23T03:14:08.055Z,23
2017-08-23T03:16:04.744Z,22.9
2017-08-23T03:18:05.251Z,23
2017-08-23T03:20:05.723Z,23
2017-08-23T03:22:10.524Z,22.9
2017-08-23T03:24:05.221Z,22.9
2017-08-23T03:26:04.967Z,22.9
2017-08-23T03:28:07.177Z,23
2017-08-23T03:30:04.899Z,23
2017-08-23T03:32:05.159Z,23
2017-08-23T03:34:04.922Z,22.9
2017-08-23T03:36:05.423Z,22.9
2017-08-23T03:38:07.681Z,23
2017-08-23T03:40:05.454Z,23
2017-08-23T03:42:05.181Z,22.9
2017-08-23T03:44:07.428Z,22.9
2017-08-23T03:46:05.218Z,22.9
2017-08-23T03:48:07.471Z,22.9
2017-08-23T03:50:05.189Z,22.9
2017-08-23T03:52:05.262Z,22.9
2017-08-23T03:54:04.997Z,22.9
2017-08-23T03:56:07.467Z,22.9
2017-08-23T03:58:05.236Z,22.9
2017-08-23T04:00:05.484Z,22.9
2017-08-23T04:02:05.217Z,22.9
2017-08-23T04:04:05.453Z,22.9
2017-08-23T04:06:04.665Z,22.9
2017-08-23T04:08:05.567Z,22.9
2017-08-23T04:10:05.302Z,22.9
2017-08-23T04:12:17.696Z,22.9
2017-08-23T04:14:08.275Z,22.9
2017-08-23T04:16:05.077Z,22.9
2017-08-23T04:18:04.977Z,22.9
2017-08-23T04:20:05.218Z,22.9
2017-08-23T04:22:04.880Z,22.9
2017-08-23T04:24:05.743Z,22.9
2017-08-23T04:26:05.547Z,22.9
2017-08-23T04:28:08.191Z,22.9
2017-08-23T04:30:13.129Z,22.9
2017-08-23T04:32:07.804Z,22.9
2017-08-23T04:34:08.007Z,22.9
2017-08-23T04:36:04.707Z,22.9
2017-08-23T04:38:05.564Z,22.9
2017-08-23T04:40:07.364Z,22.9
2017-08-23T04:42:05.094Z,22.9
2017-08-23T04:44:07.853Z,22.9
2017-08-23T04:46:05.570Z,22.9
2017-08-23T04:48:07.778Z,22.9
2017-08-23T04:50:05.494Z,22.9
2017-08-23T04:52:05.186Z,22.9
2017-08-23T04:54:04.924Z,22.9
2017-08-23T04:56:04.993Z,22.9
2017-08-23T04:58:07.223Z,22.9
2017-08-23T05:00:04.970Z,22.9
2017-08-23T05:02:04.745Z,22.9
2017-08-23T05:04:07.981Z,22.9
2017-08-23T05:06:05.309Z,22.9
2017-08-23T05:08:07.836Z,22.9
2017-08-23T05:10:05.546Z,22.9
2017-08-23T05:12:04.881Z,22.9
2017-08-23T05:14:05.602Z,22.9
2017-08-23T05:16:05.383Z,22.9
2017-08-23T05:18:05.558Z,22.9
2017-08-23T05:20:05.673Z,22.9
2017-08-23T05:22:05.425Z,22.9
2017-08-23T05:24:07.191Z,22.9
2017-08-23T05:26:04.984Z,22.9
2017-08-23T05:28:05.018Z,22.9
2017-08-23T05:30:04.786Z,22.9
2017-08-23T05:32:05.514Z,22.9
2017-08-23T05:34:05.247Z,22.9
2017-08-23T05:36:05.461Z,22.9
2017-08-23T05:38:05.059Z,22.9
2017-08-23T05:40:04.767Z,22.9
2017-08-23T05:42:05.498Z,23
2017-08-23T05:44:05.331Z,22.9
2017-08-23T05:46:05.075Z,23
2017-08-23T05:48:04.890Z,23
2017-08-23T05:50:05.212Z,23
2017-08-23T05:52:05.013Z,23
2017-08-23T05:54:04.815Z,23.1
2017-08-23T05:56:05.613Z,23.1
2017-08-23T05:58:05.273Z,23.1
2017-08-23T06:00:05.098Z,23.1
2017-08-23T06:02:04.920Z,23.2
2017-08-23T06:04:04.670Z,23.2
2017-08-23T06:06:05.370Z,23.2
2017-08-23T06:08:05.072Z,23.2
2017-08-23T06:10:04.778Z,23.2
2017-08-23T06:12:05.576Z,23.3
2017-08-23T06:14:05.428Z,23.3
2017-08-23T06:16:07.603Z,23.3
2017-08-23T06:18:05.554Z,23.3
2017-08-23T06:20:07.360Z,23.3
2017-08-23T06:22:05.583Z,23.3
2017-08-23T06:24:07.343Z,23.3
2017-08-23T06:26:10.614Z,23.4
2017-08-23T06:28:05.336Z,23.4
2017-08-23T06:30:07.662Z,23.4
2017-08-23T06:32:08.077Z,23.4
2017-08-23T06:34:04.808Z,23.4
2017-08-23T06:36:05.473Z,23.4
2017-08-23T06:38:12.862Z,23.5
2017-08-23T06:40:05.541Z,23.4
2017-08-23T06:42:10.352Z,23.5
2017-08-23T06:44:05.192Z,23.5
2017-08-23T06:46:05.342Z,23.5
2017-08-23T06:48:04.792Z,23.5
2017-08-23T06:50:05.503Z,23.6
2017-08-23T06:52:05.209Z,23.6
2017-08-23T06:54:04.875Z,23.6
2017-08-23T06:56:05.185Z,23.6
2017-08-23T06:58:04.938Z,23.7
2017-08-23T07:00:05.712Z,23.6
2017-08-23T07:02:05.042Z,23.7
2017-08-23T07:04:12.684Z,23.7
2017-08-23T07:06:05.405Z,23.7
2017-08-23T07:08:04.673Z,23.7
2017-08-23T07:10:07.909Z,23.7
2017-08-23T07:12:05.583Z,23.7
2017-08-23T07:14:07.885Z,23.8
2017-08-23T07:16:05.601Z,23.8
2017-08-23T07:18:05.697Z,23.8
2017-08-23T07:20:11.000Z,23.8
2017-08-23T07:22:04.701Z,23.8
2017-08-23T07:24:05.395Z,23.9
2017-08-23T07:26:05.124Z,23.9
2017-08-23T07:28:04.900Z,23.9
2017-08-23T07:30:05.602Z,23.9
2017-08-23T07:32:05.847Z,23.9
2017-08-23T07:34:05.590Z,24
2017-08-23T07:36:07.978Z,24
2017-08-23T07:38:04.871Z,24
2017-08-23T07:40:08.166Z,24
2017-08-23T07:42:04.845Z,24
2017-08-23T07:44:07.654Z,24.1
2017-08-23T07:46:05.372Z,24.1
2017-08-23T07:48:15.209Z,24.2
2017-08-23T07:50:08.016Z,24.2
2017-08-23T07:52:04.777Z,24.2
2017-08-23T07:54:05.526Z,24.2
2017-08-23T07:56:05.478Z,24.3
2017-08-23T07:58:05.302Z,24.3
2017-08-23T08:00:10.586Z,24.3
2017-08-23T08:02:04.972Z,24.3
2017-08-23T08:04:04.711Z,24.3
2017-08-23T08:06:08.298Z,24.4
2017-08-23T08:08:09.925Z,24.4
2017-08-23T08:10:06.081Z,24.4
2017-08-23T08:12:04.794Z,24.4
2017-08-23T08:14:05.654Z,24.5
2017-08-23T08:16:07.876Z,24.5
2017-08-23T08:18:04.797Z,24.5
2017-08-23T08:20:08.181Z,24.5
2017-08-23T08:22:05.435Z,24.6
2017-08-23T08:24:07.811Z,24.6
2017-08-23T08:26:05.441Z,24.6
2017-08-23T08:28:05.484Z,24.6
2017-08-23T08:30:05.553Z,24.6
2017-08-23T08:32:05.342Z,24.6
2017-08-23T08:34:05.084Z,24.7
2017-08-23T08:36:05.586Z,24.7
2017-08-23T08:38:05.493Z,24.7
2017-08-23T08:40:05.204Z,24.7
2017-08-23T08:42:04.885Z,24.7
2017-08-23T08:44:06.127Z,24.7
2017-08-23T08:46:04.708Z,24.7
2017-08-23T08:48:07.917Z,24.8
2017-08-23T08:50:05.289Z,24.8
2017-08-23T08:52:07.620Z,24.8
2017-08-23T08:54:05.356Z,24.8
2017-08-23T08:56:05.116Z,24.8
2017-08-23T08:58:07.472Z,24.9
2017-08-23T09:00:14.999Z,24.9
2017-08-23T09:02:05.413Z,24.9
2017-08-23T09:04:07.689Z,24.9
2017-08-23T09:06:05.443Z,24.9
2017-08-23T09:08:05.317Z,24.9
2017-08-23T09:10:05.019Z,24.9
2017-08-23T09:12:04.930Z,24.9
2017-08-23T09:14:07.344Z,25
2017-08-23T09:16:05.626Z,25
2017-08-23T09:18:05.542Z,25
2017-08-23T09:20:05.343Z,25
2017-08-23T09:22:08.147Z,25
2017-08-23T09:24:05.391Z,25
2017-08-23T09:26:04.678Z,25
2017-08-23T09:28:05.501Z,25
2017-08-23T09:30:05.210Z,25
2017-08-23T09:32:05.650Z,25
2017-08-23T09:34:05.439Z,25
2017-08-23T09:36:05.111Z,25.1
2017-08-23T09:38:05.145Z,25.1
2017-08-23T09:40:07.536Z,25.1
2017-08-23T09:42:05.283Z,25.1
2017-08-23T09:44:07.684Z,25.1
2017-08-23T09:46:05.406Z,25.1
2017-08-23T09:48:04.659Z,25.1
2017-08-23T09:50:05.489Z,25.1
2017-08-23T09:52:04.742Z,25.2
2017-08-23T09:54:04.979Z,25.2
2017-08-23T09:56:14.716Z,25.1
2017-08-23T09:58:04.978Z,25.1
2017-08-23T10:00:04.766Z,25.1
2017-08-23T10:02:05.505Z,25.1
2017-08-23T10:04:05.216Z,25.1
2017-08-23T10:06:07.970Z,25
2017-08-23T10:08:05.034Z,25
2017-08-23T10:10:04.766Z,25
2017-08-23T10:12:05.479Z,25
2017-08-23T10:14:05.344Z,25
2017-08-23T10:16:10.290Z,25
2017-08-23T10:18:05.180Z,25
2017-08-23T10:20:05.506Z,24.9
2017-08-23T10:22:05.264Z,24.9
2017-08-23T10:24:07.505Z,24.9
2017-08-23T10:26:05.520Z,24.9
2017-08-23T10:28:04.773Z,24.9
2017-08-23T10:30:08.060Z,24.9
2017-08-23T10:32:05.574Z,24.9
2017-08-23T10:34:05.363Z,24.9
2017-08-23T10:36:07.586Z,24.9
2017-08-23T10:38:04.956Z,24.9
2017-08-23T10:40:05.134Z,24.9
2017-08-23T10:42:04.850Z,24.9
2017-08-23T10:44:05.762Z,24.9
2017-08-23T10:46:05.530Z,24.9
2017-08-23T10:48:05.771Z,24.9
2017-08-23T10:50:05.632Z,24.9
2017-08-23T10:52:04.893Z,24.8
2017-08-23T10:54:05.607Z,24.8
2017-08-23T10:56:05.517Z,24.8
2017-08-23T10:58:05.272Z,24.9
2017-08-23T11:00:08.073Z,24.9
2017-08-23T11:02:04.899Z,24.8
2017-08-23T11:04:04.796Z,24.8
2017-08-23T11:06:05.534Z,24.8
2017-08-23T11:08:07.906Z,24.9
2017-08-23T11:10:07.182Z,24.8
2017-08-23T11:12:04.872Z,24.9
2017-08-23T11:14:05.252Z,24.9
2017-08-23T11:16:07.499Z,24.9
2017-08-23T11:18:05.439Z,24.9
2017-08-23T11:20:04.956Z,24.9
2017-08-23T11:22:04.677Z,24.9
2017-08-23T11:24:05.344Z,24.9
2017-08-23T11:26:05.154Z,24.9
2017-08-23T11:28:07.440Z,24.9
2017-08-23T11:30:07.724Z,24.9
2017-08-23T11:32:08.095Z,24.9
2017-08-23T11:34:04.838Z,24.9
2017-08-23T11:36:08.188Z,24.9
2017-08-23T11:38:05.249Z,25
2017-08-23T11:40:05.104Z,24.9
2017-08-23T11:42:12.632Z,24.9
2017-08-23T11:44:05.551Z,24.9
2017-08-23T11:46:05.417Z,24.9
2017-08-23T11:48:07.742Z,24.9
2017-08-23T11:50:04.874Z,24.9
2017-08-23T11:52:04.899Z,24.9
2017-08-23T11:54:04.818Z,24.9
2017-08-23T11:56:05.591Z,24.9
2017-08-23T11:58:12.865Z,24.9
2017-08-23T12:00:07.698Z,24.9
2017-08-23T12:02:05.550Z,24.9
2017-08-23T12:04:07.302Z,24.9
2017-08-23T12:06:04.995Z,24.9
2017-08-23T12:08:04.837Z,24.9
2017-08-23T12:10:05.623Z,24.8
2017-08-23T12:12:05.444Z,24.8
2017-08-23T12:14:05.301Z,24.8
2017-08-23T12:16:05.058Z,24.8
2017-08-23T12:18:07.769Z,24.7
2017-08-23T12:20:05.708Z,24.7
2017-08-23T12:22:06.196Z,24.7
2017-08-23T12:24:10.875Z,24.7
2017-08-23T12:26:04.930Z,24.7
2017-08-23T12:28:04.729Z,24.7
2017-08-23T12:30:05.422Z,24.7
2017-08-23T12:32:04.978Z,24.7
2017-08-23T12:34:04.939Z,24.7
2017-08-23T12:36:04.682Z,24.7
2017-08-23T12:38:05.274Z,24.7
2017-08-23T12:40:07.561Z,24.6
2017-08-23T12:42:05.304Z,24.6
2017-08-23T12:44:07.649Z,24.6
2017-08-23T12:46:07.895Z,24.6
2017-08-23T12:48:08.146Z,24.6
2017-08-23T12:50:04.916Z,24.6
2017-08-23T12:52:04.657Z,24.6
2017-08-23T12:54:07.488Z,24.6
2017-08-23T12:56:05.256Z,24.6
2017-08-23T12:58:04.974Z,24.6
2017-08-23T13:00:04.800Z,24.6
2017-08-23T13:02:05.597Z,24.6
2017-08-23T13:04:05.265Z,24.6
2017-08-23T13:06:04.926Z,24.6
2017-08-23T13:08:04.665Z,24.6
2017-08-23T13:10:05.430Z,24.6
2017-08-23T13:12:07.752Z,24.6
2017-08-23T13:14:07.559Z,24.6
2017-08-23T13:16:04.775Z,24.6
2017-08-23T13:18:12.390Z,24.6
2017-08-23T13:20:05.141Z,24.6
2017-08-23T13:22:04.882Z,24.6
2017-08-23T13:24:05.587Z,24.6
2017-08-23T13:26:15.409Z,24.6
2017-08-23T13:28:12.396Z,24.6
2017-08-23T13:30:07.256Z,24.6
2017-08-23T13:32:05.140Z,24.6
2017-08-23T13:34:04.924Z,24.6
2017-08-23T13:36:07.156Z,24.6
2017-08-23T13:38:07.563Z,24.6
2017-08-23T13:40:05.240Z,24.6
2017-08-23T13:42:05.524Z,24.6
2017-08-23T13:44:05.389Z,24.6
2017-08-23T13:46:05.169Z,24.6
2017-08-23T13:48:04.905Z,24.6
2017-08-23T13:50:04.597Z,24.6
2017-08-23T13:52:07.384Z,24.6
2017-08-23T13:54:05.141Z,24.6
2017-08-23T13:56:04.840Z,24.6
2017-08-23T13:58:07.606Z,24.6
2017-08-23T14:00:05.086Z,24.6
2017-08-23T14:02:10.757Z,24.6
2017-08-23T14:04:07.961Z,24.6
2017-08-23T14:06:07.212Z,24.6
2017-08-23T14:08:05.684Z,24.6
2017-08-23T14:10:07.912Z,24.6
2017-08-23T14:12:04.616Z,24.6
2017-08-23T14:14:10.555Z,24.6
2017-08-23T14:16:05.561Z,24.6
2017-08-23T14:18:05.462Z,24.6
2017-08-23T14:20:05.329Z,24.6
2017-08-23T14:22:10.091Z,24.6
2017-08-23T14:24:07.900Z,24.7
2017-08-23T14:26:08.158Z,24.7
2017-08-23T14:28:05.101Z,24.7
2017-08-23T14:30:04.881Z,24.7
2017-08-23T14:32:08.502Z,24.7
2017-08-23T14:34:05.440Z,24.7
2017-08-23T14:36:05.302Z,24.7
2017-08-23T14:38:05.034Z,24.7
2017-08-23T14:40:05.266Z,24.7
2017-08-23T14:42:04.991Z,24.7
2017-08-23T14:44:09.872Z,24.7
2017-08-23T14:46:08.094Z,24.7
2017-08-23T14:48:10.428Z,24.7
2017-08-23T14:50:05.323Z,24.7
2017-08-23T14:52:08.105Z,24.7
2017-08-23T14:54:04.855Z,24.7
2017-08-23T14:56:05.567Z,24.7
2017-08-23T14:58:05.268Z,24.7
2017-08-23T15:00:10.072Z,24.7
2017-08-23T15:02:05.050Z,24.7
2017-08-23T15:04:07.456Z,24.7
2017-08-23T15:06:05.238Z,24.7
2017-08-23T15:08:05.290Z,24.7
2017-08-23T15:10:04.993Z,24.8
2017-08-23T15:12:04.699Z,24.8
2017-08-23T15:14:08.079Z,24.8
2017-08-23T15:16:04.768Z,24.8
2017-08-23T15:18:09.703Z,24.8
2017-08-23T15:20:05.590Z,24.8
2017-08-23T15:22:05.275Z,24.8
2017-08-23T15:24:05.157Z,24.8
2017-08-23T15:26:07.605Z,24.9
2017-08-23T15:28:05.303Z,24.9
2017-08-23T15:30:07.597Z,24.9
2017-08-23T15:32:05.680Z,24.9
2017-08-23T15:34:10.595Z,24.9
2017-08-23T15:36:05.587Z,24.9
2017-08-23T15:38:05.500Z,24.8
2017-08-23T15:40:05.254Z,24.9
2017-08-23T15:42:07.569Z,24.9
2017-08-23T15:44:07.945Z,24.9
2017-08-23T15:46:12.987Z,24.9
2017-08-23T15:48:12.971Z,24.9
2017-08-23T15:50:10.083Z,24.9
2017-08-23T15:52:04.778Z,24.9
2017-08-23T15:54:07.218Z,24.9
2017-08-23T15:56:05.142Z,24.9
2017-08-23T15:58:07.819Z,24.9
2017-08-23T16:00:05.537Z,24.9
2017-08-23T16:02:05.415Z,24.9
2017-08-23T16:04:05.104Z,24.9
2017-08-23T16:06:07.868Z,24.9
2017-08-23T16:08:04.926Z,24.9
2017-08-23T16:10:07.167Z,24.9
2017-08-23T16:12:05.493Z,24.9
2017-08-23T16:14:07.741Z,24.9
2017-08-23T16:16:05.482Z,24.8
2017-08-23T16:18:10.492Z,24.9
2017-08-23T16:20:05.301Z,24.9
2017-08-23T16:22:04.995Z,24.9
2017-08-23T16:24:04.732Z,24.9
2017-08-23T16:26:05.548Z,24.8
2017-08-23T16:28:05.250Z,24.8
2017-08-23T16:30:10.591Z,24.8
2017-08-23T16:32:05.418Z,24.8
2017-08-23T16:34:05.139Z,24.8
2017-08-23T16:36:04.900Z,24.8
2017-08-23T16:38:05.738Z,24.8
2017-08-23T16:40:05.584Z,24.8
2017-08-23T16:42:04.800Z,24.8
2017-08-23T16:44:05.267Z,24.8
2017-08-23T16:46:04.944Z,24.8
2017-08-23T16:48:04.649Z,24.8
2017-08-23T16:50:05.411Z,24.8
2017-08-23T16:52:05.188Z,24.8
2017-08-23T16:54:04.910Z,24.8
2017-08-23T16:56:07.632Z,24.8
2017-08-23T16:58:05.496Z,24.8
2017-08-23T17:00:07.244Z,24.7
2017-08-23T17:02:05.440Z,24.7
2017-08-23T17:04:07.724Z,24.8
2017-08-23T17:06:05.445Z,24.8
2017-08-23T17:08:05.289Z,24.8
2017-08-23T17:10:07.543Z,24.7
2017-08-23T17:12:05.496Z,24.8
2017-08-23T17:14:05.369Z,24.8
2017-08-23T17:16:10.172Z,24.8
2017-08-23T17:18:05.081Z,24.8
2017-08-23T17:20:07.358Z,24.8
2017-08-23T17:22:10.669Z,24.8
2017-08-23T17:24:05.659Z,24.8
2017-08-23T17:26:05.561Z,24.8
2017-08-23T17:28:05.399Z,24.8
2017-08-23T17:30:05.113Z,24.8
2017-08-23T17:32:05.005Z,24.8
2017-08-23T17:34:09.833Z,24.8
2017-08-23T17:36:05.512Z,24.8
2017-08-23T17:38:05.605Z,24.8
2017-08-23T17:40:07.887Z,24.8
2017-08-23T17:42:08.086Z,24.8
2017-08-23T17:44:04.955Z,24.8
2017-08-23T17:46:04.760Z,24.8
2017-08-23T17:48:05.200Z,24.8
2017-08-23T17:50:05.285Z,24.8
2017-08-23T17:52:05.515Z,24.8
2017-08-23T17:54:04.783Z,24.8
2017-08-23T17:56:08.093Z,24.8
2017-08-23T17:58:20.067Z,24.8
2017-08-23T18:00:04.795Z,24.8
2017-08-23T18:02:04.777Z,24.8
2017-08-23T18:04:05.524Z,24.8
2017-08-23T18:06:05.248Z,24.8
2017-08-23T18:08:05.325Z,24.8
2017-08-23T18:10:07.634Z,24.8
2017-08-23T18:12:07.861Z,24.7
2017-08-23T18:14:05.993Z,24.8
2017-08-23T18:16:05.467Z,24.8
2017-08-23T18:18:05.439Z,24.8
2017-08-23T18:20:05.211Z,24.8
2017-08-23T18:22:05.008Z,24.7
2017-08-23T18:24:05.251Z,24.8
2017-08-23T18:26:05.054Z,24.8
2017-08-23T18:28:04.815Z,24.7
2017-08-23T18:30:05.080Z,24.7
2017-08-23T18:32:07.492Z,24.7
2017-08-23T18:34:05.495Z,24.7
2017-08-23T18:36:10.493Z,24.7
2017-08-23T18:38:05.504Z,24.7
2017-08-23T18:40:05.649Z,24.7
2017-08-23T18:42:05.385Z,24.7
2017-08-23T18:44:04.945Z,24.7
2017-08-23T18:46:12.440Z,24.7
2017-08-23T18:48:07.676Z,24.7
2017-08-23T18:50:05.508Z,24.7
2017-08-23T18:52:06.454Z,24.7
2017-08-23T18:54:05.142Z,24.7
2017-08-23T18:56:05.096Z,24.7
2017-08-23T18:58:04.801Z,24.7
2017-08-23T19:00:05.503Z,24.7
2017-08-23T19:02:05.370Z,24.7
2017-08-23T19:04:05.272Z,24.7
2017-08-23T19:06:05.035Z,24.7
2017-08-23T19:08:04.922Z,24.7
2017-08-23T19:10:12.769Z,24.7
2017-08-23T19:12:05.491Z,24.7
2017-08-23T19:14:05.351Z,24.7
2017-08-23T19:16:05.093Z,24.7
2017-08-23T19:18:05.632Z,24.7
2017-08-23T19:20:10.551Z,24.7
2017-08-23T19:22:05.234Z,24.7
2017-08-23T19:24:04.742Z,24.7
2017-08-23T19:26:05.679Z,24.7
2017-08-23T19:28:05.350Z,24.7
2017-08-23T19:30:07.610Z,24.7
2017-08-23T19:32:05.044Z,24.7
2017-08-23T19:34:04.800Z,24.7
2017-08-23T19:36:05.573Z,24.7
2017-08-23T19:38:05.477Z,24.7
2017-08-23T19:40:04.867Z,24.7
2017-08-23T19:42:04.706Z,24.7
2017-08-23T19:44:05.685Z,24.7
2017-08-23T19:46:05.444Z,24.7
2017-08-23T19:48:05.150Z,24.7
2017-08-23T19:50:05.033Z,24.7
2017-08-23T19:52:09.928Z,24.7
2017-08-23T19:54:05.636Z,24.7
2017-08-23T19:56:04.951Z,24.7
2017-08-23T19:58:04.768Z,24.7
2017-08-23T20:00:05.515Z,24.7
2017-08-23T20:02:05.240Z,24.7
2017-08-23T20:04:10.584Z,24.7
2017-08-23T20:06:05.340Z,24.7
2017-08-23T20:08:05.438Z,24.7
2017-08-23T20:10:05.134Z,24.7
2017-08-23T20:12:09.780Z,24.7
2017-08-23T20:14:05.661Z,24.7
2017-08-23T20:16:05.612Z,24.7
2017-08-23T20:18:10.617Z,24.7
2017-08-23T20:20:10.520Z,24.7
2017-08-23T20:22:05.440Z,24.7
2017-08-23T20:24:07.751Z,24.7
2017-08-23T20:26:13.038Z,24.7
2017-08-23T20:28:04.818Z,24.7
2017-08-23T20:30:05.539Z,24.7
2017-08-23T20:32:05.387Z,24.7
2017-08-23T20:34:05.715Z,24.7
2017-08-23T20:36:05.457Z,24.7
2017-08-23T20:38:04.861Z,24.7
2017-08-23T20:40:05.628Z,24.7
2017-08-23T20:42:07.882Z,24.7
2017-08-23T20:44:05.697Z,24.7
2017-08-23T20:46:04.896Z,24.7
2017-08-23T20:48:08.116Z,24.7
2017-08-23T20:50:04.981Z,24.7
2017-08-23T20:52:07.227Z,24.6
2017-08-23T20:54:12.567Z,24.6
2017-08-23T20:56:05.360Z,24.7
2017-08-23T20:58:05.099Z,24.7
2017-08-23T21:00:04.787Z,24.6
2017-08-23T21:02:05.587Z,24.7
2017-08-23T21:04:05.375Z,24.7
2017-08-23T21:06:07.693Z,24.7
2017-08-23T21:08:05.572Z,24.7
2017-08-23T21:10:05.329Z,24.6
2017-08-23T21:12:10.680Z,24.6
2017-08-23T21:14:05.023Z,24.7
2017-08-23T21:16:04.737Z,24.6
2017-08-23T21:18:12.283Z,24.7
2017-08-23T21:20:05.375Z,24.7
2017-08-23T21:22:05.110Z,24.7
2017-08-23T21:24:04.852Z,24.7
2017-08-23T21:26:10.580Z,24.7
2017-08-23T21:28:04.895Z,24.6
2017-08-23T21:30:05.100Z,24.7
2017-08-23T21:32:08.907Z,24.7
2017-08-23T21:34:04.623Z,24.7
2017-08-23T21:36:05.319Z,24.6
2017-08-23T21:38:05.119Z,24.6
2017-08-23T21:40:04.852Z,24.7
2017-08-23T21:42:10.633Z,24.6
2017-08-23T21:44:05.514Z,24.6
2017-08-23T21:46:07.771Z,24.6
2017-08-23T21:48:05.047Z,24.6
2017-08-23T21:50:05.305Z,24.6
2017-08-23T21:52:04.981Z,24.7
2017-08-23T21:54:07.222Z,24.6
2017-08-23T21:56:05.557Z,24.6
2017-08-23T21:58:05.232Z,24.6
2017-08-23T22:00:05.111Z,24.7
2017-08-23T22:02:07.362Z,24.6
2017-08-23T22:04:07.286Z,24.7
2017-08-23T22:06:07.708Z,24.6
2017-08-23T22:08:05.414Z,24.7
2017-08-23T22:10:15.236Z,24.6
2017-08-23T22:12:15.080Z,24.6
2017-08-23T22:14:05.491Z,24.6
2017-08-23T22:16:07.767Z,24.6
2017-08-23T22:18:09.698Z,24.6
2017-08-23T22:20:05.402Z,24.6
2017-08-23T22:22:10.185Z,24.6
2017-08-23T22:24:04.959Z,24.6
2017-08-23T22:26:07.189Z,24.6
2017-08-23T22:28:07.472Z,24.6
2017-08-23T22:30:05.147Z,24.6
2017-08-23T22:32:05.030Z,24.6
2017-08-23T22:34:04.788Z,24.6
2017-08-23T22:36:05.133Z,24.6
2017-08-23T22:38:05.414Z,24.6
2017-08-23T22:40:07.896Z,24.6
2017-08-23T22:42:13.157Z,24.7
2017-08-23T22:44:04.893Z,24.7
2017-08-23T22:46:05.206Z,24.7
2017-08-23T22:48:11.666Z,24.7
2017-08-23T22:50:05.183Z,24.7
2017-08-23T22:52:07.489Z,24.7
2017-08-23T22:54:05.217Z,24.7
2017-08-23T22:56:05.138Z,24.7
2017-08-23T22:58:04.830Z,24.7
2017-08-23T23:00:08.055Z,24.7
2017-08-23T23:02:05.501Z,24.7
2017-08-23T23:04:10.245Z,24.7
2017-08-23T23:06:05.025Z,24.7
2017-08-23T23:08:04.759Z,24.7
2017-08-23T23:10:04.655Z,24.7
2017-08-23T23:12:05.341Z,24.7
2017-08-23T23:14:05.221Z,24.7
2017-08-23T23:16:05.074Z,24.7
2017-08-23T23:18:04.832Z,24.7
2017-08-23T23:20:05.854Z,24.7
2017-08-23T23:22:05.197Z,24.7
2017-08-23T23:24:12.539Z,24.7
2017-08-23T23:26:05.291Z,24.7
2017-08-23T23:28:05.127Z,24.7
2017-08-23T23:30:04.872Z,24.7
2017-08-23T23:32:05.687Z,24.7
2017-08-23T23:34:04.909Z,24.7
2017-08-23T23:36:08.259Z,24.7
2017-08-23T23:38:05.826Z,24.7
2017-08-23T23:40:05.530Z,24.7
2017-08-23T23:42:05.309Z,24.7
2017-08-23T23:44:05.336Z,24.7
2017-08-23T23:46:05.013Z,24.7
2017-08-23T23:48:04.700Z,24.7
2017-08-23T23:50:05.405Z,24.7
2017-08-23T23:52:05.190Z,24.7
2017-08-23T23:54:04.913Z,24.7
2017-08-23T23:56:05.188Z,24.7
2017-08-23T23:58:04.963Z,24.7
